עמוד ראשי
METAR-TAF:

METAR-TAF

שדות תעופה :

Siirt, טורקיה

קו רוחב: 37-58-41N, קו אורך: 41-50-21E, גובה: 610מטר

תצפית מזג אוויר נוכחית

הדו"ח נערך לפני 8 שעות ו 55דקות, בשעה 12:50 UTC
רוח 21קשר מכיוון צפון-מזרח
טמפרטורת 37 צלסיוס
לחות 17%
לחץ 1001 hPa
ראות 10 קילומטר או יותר
מעט עננים בגובה 2500רגל , קומולונימבוס.
עננים פזורים בגובה 4000רגל
עננים בינוניים בגובה 10000רגל

METAR: LTCL 231250Z 05021KT 9999 FEW025CB SCT040 BKN100 37/08 Q1001

זמן: 00:45 (21:45 UTC)

תחזית

הדו"ח נערך לפני 8 שעות ו 5דקות, בשעה 13:40 UTC
תחזית בתוקף מ 23 ב 15 UTC עד 23 ב 24 UTC
רוח 15קשר מכיוון מזרח/צפון-מזרח עם משבים עד 25קשר
ראות 10 קילומטר או יותר
מעט עננים בגובה 4000רגל
עננים בינוניים בגובה 10000רגל
יעשה מ
23 ב 16 UTC עד 23 ב 18 UTC
רוח 8קשר מכיוון צפון/צפון-מזרח
ראות 10 קילומטר או יותר
ללא עננים שבסיסם נמוך מ 5000 רגל או קומולונימבוס

TAF: LTCL 231340Z 2315/2324 06015G25KT 9999 FEW040 BKN100 BECMG 2316/2318 03008KT CAVOK

תצפיות ותחזיות מזג אוויר לגבי יותר מ- 4,000 שדות תעופה ברחבי העולם. דוחות METAR ו- TAF.

התחנות הזמינות מסומנות בנקודות צהובות ואדומות על גבי המפה.

העבר את העכבר לנקודה הצבעונית על מנת לראות את שם התחנה.

לאחר מכן, לחץ כדי לראות את תוכן ואת תחזיות מזג האוויר.

כדי לשנות את המפה: לחץ על הכפתורים הירוקים עם הפלוס השחור כדי להתקרב; על הכפתור הירוק עם המקף כדי להתרחק; או בחיצים הירוקים למפות סמוכות.


METAR-TAF: